sensor_id;sensor_type;location;lat;lon;timestamp;pressure;altitude;pressure_sealevel;temperature;humidity
55490;BME280;44029;52.956;4.772;2023-03-01T00:00:11;103452.41;;;3.93;100.00
55490;BME280;44029;52.956;4.772;2023-03-01T00:02:37;103449.41;;;3.86;100.00
55490;BME280;44029;52.956;4.772;2023-03-01T00:05:03;103444.41;;;4.01;100.00
55490;BME280;44029;52.956;4.772;2023-03-01T00:07:28;103442.72;;;4.00;100.00
55490;BME280;44029;52.956;4.772;2023-03-01T00:09:53;103438.97;;;4.01;100.00
55490;BME280;44029;52.956;4.772;2023-03-01T00:12:19;103440.00;;;4.10;100.00
55490;BME280;44029;52.956;4.772;2023-03-01T00:14:44;103440.25;;;4.07;100.00
55490;BME280;44029;52.956;4.772;2023-03-01T00:17:10;103448.53;;;3.96;100.00
55490;BME280;44029;52.956;4.772;2023-03-01T00:19:35;103440.00;;;3.91;100.00
55490;BME280;44029;52.956;4.772;2023-03-01T00:22:00;103443.13;;;3.86;100.00
55490;BME280;44029;52.956;4.772;2023-03-01T00:24:26;103445.69;;;3.78;100.00
55490;BME280;44029;52.956;4.772;2023-03-01T00:26:55;103448.13;;;3.91;100.00
55490;BME280;44029;52.956;4.772;2023-03-01T00:29:22;103451.25;;;3.86;100.00
55490;BME280;44029;52.956;4.772;2023-03-01T00:31:47;103448.94;;;3.72;100.00
55490;BME280;44029;52.956;4.772;2023-03-01T00:34:13;103447.69;;;3.76;100.00
55490;BME280;44029;52.956;4.772;2023-03-01T00:36:38;103453.97;;;3.76;100.00
55490;BME280;44029;52.956;4.772;2023-03-01T00:39:07;103449.41;;;3.86;100.00
55490;BME280;44029;52.956;4.772;2023-03-01T00:41:33;103453.53;;;3.81;100.00
55490;BME280;44029;52.956;4.772;2023-03-01T00:43:59;103446.53;;;3.78;100.00
55490;BME280;44029;52.956;4.772;2023-03-01T00:46:26;103445.41;;;3.81;100.00
55490;BME280;44029;52.956;4.772;2023-03-01T00:48:53;103440.94;;;3.70;100.00
55490;BME280;44029;52.956;4.772;2023-03-01T00:51:25;103441.13;;;3.88;100.00
55490;BME280;44029;52.956;4.772;2023-03-01T00:53:53;103443.41;;;4.02;100.00
55490;BME280;44029;52.956;4.772;2023-03-01T00:56:19;103446.56;;;4.07;100.00
55490;BME280;44029;52.956;4.772;2023-03-01T00:58:44;103445.84;;;4.15;100.00
55490;BME280;44029;52.956;4.772;2023-03-01T01:01:15;103441.69;;;4.31;100.00
55490;BME280;44029;52.956;4.772;2023-03-01T01:03:45;103432.97;;;4.27;100.00
55490;BME280;44029;52.956;4.772;2023-03-01T01:06:21;103440.09;;;4.48;100.00
55490;BME280;44029;52.956;4.772;2023-03-01T01:08:47;103431.28;;;4.26;100.00
55490;BME280;44029;52.956;4.772;2023-03-01T01:11:13;103429.59;;;4.05;100.00
55490;BME280;44029;52.956;4.772;2023-03-01T01:13:40;103434.69;;;4.09;100.00
55490;BME280;44029;52.956;4.772;2023-03-01T01:16:06;103429.28;;;4.09;100.00
55490;BME280;44029;52.956;4.772;2023-03-01T01:18:32;103421.56;;;4.14;100.00
55490;BME280;44029;52.956;4.772;2023-03-01T01:20:57;103418.44;;;4.18;100.00
55490;BME280;44029;52.956;4.772;2023-03-01T01:23:23;103420.13;;;4.19;100.00
55490;BME280;44029;52.956;4.772;2023-03-01T01:25:48;103416.00;;;4.15;100.00
55490;BME280;44029;52.956;4.772;2023-03-01T01:28:13;103411.16;;;3.90;100.00
55490;BME280;44029;52.956;4.772;2023-03-01T01:30:39;103408.16;;;3.83;100.00
55490;BME280;44029;52.956;4.772;2023-03-01T01:33:04;103412.72;;;3.92;100.00
55490;BME280;44029;52.956;4.772;2023-03-01T01:35:29;103409.44;;;3.79;100.00
55490;BME280;44029;52.956;4.772;2023-03-01T01:37:55;103400.16;;;3.72;100.00
55490;BME280;44029;52.956;4.772;2023-03-01T01:40:20;103398.16;;;3.54;100.00
55490;BME280;44029;52.956;4.772;2023-03-01T01:42:45;103392.97;;;3.32;100.00
55490;BME280;44029;52.956;4.772;2023-03-01T01:47:58;103380.16;;;2.93;100.00
55490;BME280;44029;52.956;4.772;2023-03-01T01:50:23;103387.69;;;2.80;100.00
55490;BME280;44029;52.956;4.772;2023-03-01T01:52:50;103390.16;;;2.93;100.00
55490;BME280;44029;52.956;4.772;2023-03-01T01:55:20;103388.44;;;3.01;100.00
55490;BME280;44029;52.956;4.772;2023-03-01T01:57:51;103388.63;;;3.09;100.00
55490;BME280;44029;52.956;4.772;2023-03-01T02:00:24;103388.22;;;3.14;100.00
55490;BME280;44029;52.956;4.772;2023-03-01T02:02:52;103385.50;;;3.14;100.00
55490;BME280;44029;52.956;4.772;2023-03-01T02:05:40;103380.66;;;3.18;100.00
55490;BME280;44029;52.956;4.772;2023-03-01T02:08:08;103375.56;;;3.24;100.00
55490;BME280;44029;52.956;4.772;2023-03-01T02:10:37;103378.16;;;3.36;100.00
55490;BME280;44029;52.956;4.772;2023-03-01T02:13:03;103381.31;;;3.41;100.00
55490;BME280;44029;52.956;4.772;2023-03-01T02:15:33;103375.44;;;3.55;100.00
55490;BME280;44029;52.956;4.772;2023-03-01T02:17:58;103370.47;;;3.51;100.00
55490;BME280;44029;52.956;4.772;2023-03-01T02:20:51;103369.94;;;3.66;100.00
55490;BME280;44029;52.956;4.772;2023-03-01T02:23:19;103360.78;;;3.48;100.00
55490;BME280;44029;52.956;4.772;2023-03-01T02:25:57;103363.19;;;3.61;100.00
55490;BME280;44029;52.956;4.772;2023-03-01T02:28:29;103361.75;;;3.57;100.00
55490;BME280;44029;52.956;4.772;2023-03-01T02:30:55;103363.31;;;3.40;100.00
55490;BME280;44029;52.956;4.772;2023-03-01T02:33:39;103352.47;;;3.40;100.00
55490;BME280;44029;52.956;4.772;2023-03-01T02:36:23;103351.38;;;3.52;100.00
55490;BME280;44029;52.956;4.772;2023-03-01T02:38:52;103342.78;;;3.47;100.00
55490;BME280;44029;52.956;4.772;2023-03-01T02:41:20;103342.94;;;3.45;100.00
55490;BME280;44029;52.956;4.772;2023-03-01T02:43:46;103344.78;;;3.45;100.00
55490;BME280;44029;52.956;4.772;2023-03-01T02:46:21;103346.53;;;3.56;100.00
55490;BME280;44029;52.956;4.772;2023-03-01T02:49:00;103347.38;;;3.56;100.00
55490;BME280;44029;52.956;4.772;2023-03-01T02:51:52;103337.94;;;3.60;100.00
55490;BME280;44029;52.956;4.772;2023-03-01T02:54:40;103336.25;;;3.59;100.00
55490;BME280;44029;52.956;4.772;2023-03-01T02:57:07;103335.25;;;3.51;100.00
55490;BME280;44029;52.956;4.772;2023-03-01T02:59:35;103337.09;;;3.60;100.00
55490;BME280;44029;52.956;4.772;2023-03-01T03:02:05;103336.25;;;3.59;100.00
55490;BME280;44029;52.956;4.772;2023-03-01T03:04:30;103339.09;;;3.58;100.00
55490;BME280;44029;52.956;4.772;2023-03-01T03:06:56;103339.22;;;3.56;100.00
55490;BME280;44029;52.956;4.772;2023-03-01T03:09:21;103338.25;;;3.57;100.00
55490;BME280;44029;52.956;4.772;2023-03-01T03:11:46;103329.53;;;3.63;100.00
55490;BME280;44029;52.956;4.772;2023-03-01T03:14:13;103326.25;;;3.70;100.00
55490;BME280;44029;52.956;4.772;2023-03-01T03:16:48;103329.66;;;3.91;100.00
55490;BME280;44029;52.956;4.772;2023-03-01T03:19:14;103324.25;;;3.91;100.00
55490;BME280;44029;52.956;4.772;2023-03-01T03:21:40;103326.97;;;3.81;100.00
55490;BME280;44029;52.956;4.772;2023-03-01T03:24:05;103324.81;;;3.75;100.00
55490;BME280;44029;52.956;4.772;2023-03-01T03:26:31;103313.69;;;3.88;100.00
55490;BME280;44029;52.956;4.772;2023-03-01T03:28:57;103314.66;;;3.97;100.00
55490;BME280;44029;52.956;4.772;2023-03-01T03:31:22;103315.41;;;3.89;100.00
55490;BME280;44029;52.956;4.772;2023-03-01T03:33:48;103315.69;;;3.86;100.00
55490;BME280;44029;52.956;4.772;2023-03-01T03:36:19;103310.22;;;4.05;100.00
55490;BME280;44029;52.956;4.772;2023-03-01T03:38:45;103312.38;;;3.92;100.00
55490;BME280;44029;52.956;4.772;2023-03-01T03:41:11;103317.09;;;3.90;100.00
55490;BME280;44029;52.956;4.772;2023-03-01T03:43:38;103313.97;;;3.95;100.00
55490;BME280;44029;52.956;4.772;2023-03-01T03:46:04;103312.38;;;3.92;100.00
55490;BME280;44029;52.956;4.772;2023-03-01T03:48:34;103301.13;;;3.87;100.00
55490;BME280;44029;52.956;4.772;2023-03-01T03:51:00;103303.25;;;3.74;100.00
55490;BME280;44029;52.956;4.772;2023-03-01T03:53:27;103300.81;;;3.90;100.00
55490;BME280;44029;52.956;4.772;2023-03-01T03:55:53;103298.88;;;3.63;100.00
55490;BME280;44029;52.956;4.772;2023-03-01T03:58:21;103297.69;;;3.75;100.00
55490;BME280;44029;52.956;4.772;2023-03-01T04:00:48;103306.53;;;3.77;100.00
55490;BME280;44029;52.956;4.772;2023-03-01T04:03:15;103295.41;;;3.90;100.00
55490;BME280;44029;52.956;4.772;2023-03-01T04:05:41;103296.59;;;3.78;100.00
55490;BME280;44029;52.956;4.772;2023-03-01T04:08:08;103287.25;;;3.90;100.00
55490;BME280;44029;52.956;4.772;2023-03-01T04:10:41;103287.25;;;4.10;100.00
55490;BME280;44029;52.956;4.772;2023-03-01T04:13:10;103281.50;;;4.13;100.00
55490;BME280;44029;52.956;4.772;2023-03-01T04:15:36;103282.72;;;3.91;100.00
55490;BME280;44029;52.956;4.772;2023-03-01T04:18:02;103284.28;;;3.93;100.00
55490;BME280;44029;52.956;4.772;2023-03-01T04:20:30;103275.13;;;4.04;100.00
55490;BME280;44029;52.956;4.772;2023-03-01T04:23:02;103278.97;;;4.11;100.00
55490;BME280;44029;52.956;4.772;2023-03-01T04:28:26;103278.25;;;3.99;100.00
55490;BME280;44029;52.956;4.772;2023-03-01T04:30:53;103274.84;;;3.97;100.00
55490;BME280;44029;52.956;4.772;2023-03-01T04:33:18;103260.03;;;3.82;100.00
55490;BME280;44029;52.956;4.772;2023-03-01T04:35:44;103264.16;;;3.86;100.00
55490;BME280;44029;52.956;4.772;2023-03-01T04:38:09;103248.06;;;3.75;100.00
55490;BME280;44029;52.956;4.772;2023-03-01T04:40:36;103255.22;;;3.76;100.00
55490;BME280;44029;52.956;4.772;2023-03-01T04:43:02;103258.06;;;3.74;100.00
55490;BME280;44029;52.956;4.772;2023-03-01T04:45:27;103257.19;;;3.83;100.00
55490;BME280;44029;52.956;4.772;2023-03-01T04:47:53;103248.47;;;3.80;100.00
55490;BME280;44029;52.956;4.772;2023-03-01T04:50:19;103258.31;;;3.81;100.00
55490;BME280;44029;52.956;4.772;2023-03-01T04:52:46;103263.44;;;3.84;100.00
55490;BME280;44029;52.956;4.772;2023-03-01T04:55:12;103265.47;;;3.82;100.00
55490;BME280;44029;52.956;4.772;2023-03-01T04:57:37;103271.72;;;3.82;100.00
55490;BME280;44029;52.956;4.772;2023-03-01T05:00:04;103275.00;;;3.86;100.00
55490;BME280;44029;52.956;4.772;2023-03-01T05:02:52;103270.00;;;3.91;100.00
55490;BME280;44029;52.956;4.772;2023-03-01T05:05:32;103268.66;;;4.05;100.00
55490;BME280;44029;52.956;4.772;2023-03-01T05:08:03;103266.69;;;3.97;100.00
55490;BME280;44029;52.956;4.772;2023-03-01T05:10:30;103261.69;;;4.02;100.00
55490;BME280;44029;52.956;4.772;2023-03-01T05:12:57;103262.53;;;4.03;100.00
55490;BME280;44029;52.956;4.772;2023-03-01T05:15:23;103260.53;;;4.05;100.00
55490;BME280;44029;52.956;4.772;2023-03-01T05:17:54;103261.41;;;4.05;100.00
55490;BME280;44029;52.956;4.772;2023-03-01T05:20:20;103263.38;;;4.13;100.00
55490;BME280;44029;52.956;4.772;2023-03-01T05:22:49;103259.66;;;4.14;100.00
55490;BME280;44029;52.956;4.772;2023-03-01T05:25:14;103260.16;;;3.90;100.00
55490;BME280;44029;52.956;4.772;2023-03-01T05:27:40;103255.25;;;4.03;100.00
55490;BME280;44029;52.956;4.772;2023-03-01T05:30:06;103249.97;;;4.12;100.00
55490;BME280;44029;52.956;4.772;2023-03-01T05:32:49;103247.34;;;4.30;100.00
55490;BME280;44029;52.956;4.772;2023-03-01T05:35:16;103251.09;;;4.19;100.00
55490;BME280;44029;52.956;4.772;2023-03-01T05:37:46;103239.34;;;4.28;100.00
55490;BME280;44029;52.956;4.772;2023-03-01T05:40:15;103243.38;;;4.14;100.00
55490;BME280;44029;52.956;4.772;2023-03-01T05:42:43;103241.22;;;4.18;100.00
55490;BME280;44029;52.956;4.772;2023-03-01T05:45:10;103239.13;;;4.12;100.00
55490;BME280;44029;52.956;4.772;2023-03-01T05:47:35;103228.25;;;4.12;100.00
55490;BME280;44029;52.956;4.772;2023-03-01T05:50:02;103230.28;;;4.10;100.00
55490;BME280;44029;52.956;4.772;2023-03-01T05:52:27;103219.41;;;4.10;100.00
55490;BME280;44029;52.956;4.772;2023-03-01T05:54:52;103215.25;;;4.15;100.00
55490;BME280;44029;52.956;4.772;2023-03-01T05:57:17;103221.13;;;4.11;100.00
55490;BME280;44029;52.956;4.772;2023-03-01T05:59:43;103215.69;;;4.11;100.00
55490;BME280;44029;52.956;4.772;2023-03-01T06:02:08;103214.13;;;4.08;100.00
55490;BME280;44029;52.956;4.772;2023-03-01T06:04:33;103214.00;;;4.10;100.00
55490;BME280;44029;52.956;4.772;2023-03-01T06:06:59;103220.19;;;3.92;100.00
55490;BME280;44029;52.956;4.772;2023-03-01T06:09:24;103209.94;;;3.86;100.00
55490;BME280;44029;52.956;4.772;2023-03-01T06:11:51;103214.31;;;3.97;100.00
55490;BME280;44029;52.956;4.772;2023-03-01T06:14:16;103217.50;;;3.82;100.00
55490;BME280;44029;52.956;4.772;2023-03-01T06:16:41;103209.38;;;3.82;100.00
55490;BME280;44029;52.956;4.772;2023-03-01T06:19:07;103203.97;;;3.73;100.00
55490;BME280;44029;52.956;4.772;2023-03-01T06:21:32;103198.09;;;3.77;100.00
55490;BME280;44029;52.956;4.772;2023-03-01T06:23:57;103199.16;;;3.66;100.00
55490;BME280;44029;52.956;4.772;2023-03-01T06:26:23;103206.41;;;3.66;100.00
55490;BME280;44029;52.956;4.772;2023-03-01T06:28:48;103193.72;;;3.66;100.00
55490;BME280;44029;52.956;4.772;2023-03-01T06:31:13;103190.09;;;3.85;100.00
55490;BME280;44029;52.956;4.772;2023-03-01T06:33:39;103191.88;;;3.67;100.00
55490;BME280;44029;52.956;4.772;2023-03-01T06:36:05;103198.00;;;3.69;100.00
55490;BME280;44029;52.956;4.772;2023-03-01T06:38:30;103201.50;;;3.79;100.00
55490;BME280;44029;52.956;4.772;2023-03-01T06:40:56;103195.56;;;3.76;100.00
55490;BME280;44029;52.956;4.772;2023-03-01T06:43:22;103189.69;;;3.80;100.00
55490;BME280;44029;52.956;4.772;2023-03-01T06:45:48;103183.50;;;3.88;100.00
55490;BME280;44029;52.956;4.772;2023-03-01T06:48:14;103183.94;;;3.93;100.00
55490;BME280;44029;52.956;4.772;2023-03-01T06:50:39;103188.47;;;4.02;100.00
55490;BME280;44029;52.956;4.772;2023-03-01T06:53:04;103175.41;;;4.16;100.00
55490;BME280;44029;52.956;4.772;2023-03-01T06:55:31;103184.63;;;3.95;100.00
55490;BME280;44029;52.956;4.772;2023-03-01T06:57:57;103184.03;;;4.01;100.00
55490;BME280;44029;52.956;4.772;2023-03-01T07:00:23;103186.03;;;4.09;100.00
55490;BME280;44029;52.956;4.772;2023-03-01T07:02:48;103184.63;;;3.95;100.00
55490;BME280;44029;52.956;4.772;2023-03-01T07:05:14;103189.66;;;3.90;100.00
55490;BME280;44029;52.956;4.772;2023-03-01T07:07:39;103185.91;;;4.01;100.00
55490;BME280;44029;52.956;4.772;2023-03-01T07:10:05;103183.78;;;3.95;100.00
55490;BME280;44029;52.956;4.772;2023-03-01T07:12:31;103188.38;;;3.94;100.00
55490;BME280;44029;52.956;4.772;2023-03-01T07:14:56;103184.91;;;3.92;100.00
55490;BME280;44029;52.956;4.772;2023-03-01T07:17:22;103187.06;;;3.88;100.00
55490;BME280;44029;52.956;4.772;2023-03-01T07:19:47;103183.47;;;4.07;100.00
55490;BME280;44029;52.956;4.772;2023-03-01T07:22:12;103181.38;;;3.92;100.00
55490;BME280;44029;52.956;4.772;2023-03-01T07:24:38;103188.91;;;3.98;100.00
55490;BME280;44029;52.956;4.772;2023-03-01T07:27:03;103189.78;;;3.88;100.00
55490;BME280;44029;52.956;4.772;2023-03-01T07:29:28;103185.91;;;4.01;100.00
55490;BME280;44029;52.956;4.772;2023-03-01T07:31:54;103188.91;;;4.35;100.00
55490;BME280;44029;52.956;4.772;2023-03-01T07:34:19;103195.56;;;4.41;100.00
55490;BME280;44029;52.956;4.772;2023-03-01T07:36:44;103187.13;;;4.44;100.00
55490;BME280;44029;52.956;4.772;2023-03-01T07:39:10;103188.56;;;4.66;100.00
55490;BME280;44029;52.956;4.772;2023-03-01T07:41:36;103182.81;;;4.69;100.00
55490;BME280;44029;52.956;4.772;2023-03-01T07:44:02;103183.69;;;4.88;100.00
55490;BME280;44029;52.956;4.772;2023-03-01T07:46:27;103185.41;;;4.89;100.00
55490;BME280;44029;52.956;4.772;2023-03-01T07:48:52;103192.16;;;5.02;100.00
55490;BME280;44029;52.956;4.772;2023-03-01T07:51:18;103183.63;;;5.15;100.00
55490;BME280;44029;52.956;4.772;2023-03-01T07:53:46;103180.53;;;5.36;100.00
55490;BME280;44029;52.956;4.772;2023-03-01T07:56:13;103183.78;;;5.58;100.00
55490;BME280;44029;52.956;4.772;2023-03-01T07:58:42;103190.47;;;5.72;100.00
55490;BME280;44029;52.956;4.772;2023-03-01T08:01:10;103183.88;;;5.74;100.00
55490;BME280;44029;52.956;4.772;2023-03-01T08:03:36;103195.41;;;5.94;100.00
55490;BME280;44029;52.956;4.772;2023-03-01T08:06:05;103188.47;;;6.34;100.00
55490;BME280;44029;52.956;4.772;2023-03-01T08:08:31;103177.53;;;5.92;100.00
55490;BME280;44029;52.956;4.772;2023-03-01T08:10:58;103180.19;;;6.02;100.00
55490;BME280;44029;52.956;4.772;2023-03-01T08:13:23;103185.81;;;5.82;100.00
55490;BME280;44029;52.956;4.772;2023-03-01T08:15:49;103177.81;;;5.80;100.00
55490;BME280;44029;52.956;4.772;2023-03-01T08:18:15;103183.19;;;5.72;100.00
55490;BME280;44029;52.956;4.772;2023-03-01T08:20:40;103179.09;;;5.68;100.00
55490;BME280;44029;52.956;4.772;2023-03-01T08:23:06;103178.22;;;5.68;100.00
55490;BME280;44029;52.956;4.772;2023-03-01T08:25:31;103176.56;;;6.35;100.00
55490;BME280;44029;52.956;4.772;2023-03-01T08:27:56;103171.19;;;6.52;100.00
55490;BME280;44029;52.956;4.772;2023-03-01T08:30:22;103166.50;;;7.11;100.00
55490;BME280;44029;52.956;4.772;2023-03-01T08:32:49;103163.94;;;7.43;100.00
55490;BME280;44029;52.956;4.772;2023-03-01T08:35:14;103164.78;;;7.27;100.00
55490;BME280;44029;52.956;4.772;2023-03-01T08:37:39;103167.31;;;7.53;100.00
55490;BME280;44029;52.956;4.772;2023-03-01T08:40:05;103166.28;;;8.26;100.00
55490;BME280;44029;52.956;4.772;2023-03-01T08:42:32;103153.72;;;8.09;100.00
55490;BME280;44029;52.956;4.772;2023-03-01T08:44:58;103156.56;;;8.24;100.00
55490;BME280;44029;52.956;4.772;2023-03-01T08:47:23;103161.00;;;8.87;100.00
55490;BME280;44029;52.956;4.772;2023-03-01T08:49:49;103148.78;;;8.98;100.00
55490;BME280;44029;52.956;4.772;2023-03-01T08:52:15;103150.25;;;8.86;100.00
55490;BME280;44029;52.956;4.772;2023-03-01T08:54:40;103147.53;;;9.09;100.00
55490;BME280;44029;52.956;4.772;2023-03-01T08:57:06;103141.19;;;9.46;100.00
55490;BME280;44029;52.956;4.772;2023-03-01T08:59:31;103139.97;;;9.64;100.00
55490;BME280;44029;52.956;4.772;2023-03-01T09:02:02;103141.47;;;9.37;100.00
55490;BME280;44029;52.956;4.772;2023-03-01T09:04:27;103142.84;;;8.95;100.00
55490;BME280;44029;52.956;4.772;2023-03-01T09:06:52;103140.78;;;8.34;100.00
55490;BME280;44029;52.956;4.772;2023-03-01T09:09:18;103144.16;;;8.13;100.00
55490;BME280;44029;52.956;4.772;2023-03-01T09:11:44;103140.31;;;7.83;100.00
55490;BME280;44029;52.956;4.772;2023-03-01T09:14:12;103149.06;;;7.70;100.00
55490;BME280;44029;52.956;4.772;2023-03-01T09:16:37;103153.19;;;7.41;100.00
55490;BME280;44029;52.956;4.772;2023-03-01T09:19:03;103147.75;;;7.25;100.00
55490;BME280;44029;52.956;4.772;2023-03-01T09:21:29;103154.94;;;7.26;100.00
55490;BME280;44029;52.956;4.772;2023-03-01T09:23:55;103157.97;;;7.31;100.00
55490;BME280;44029;52.956;4.772;2023-03-01T09:26:22;103161.75;;;7.30;100.00
55490;BME280;44029;52.956;4.772;2023-03-01T09:28:49;103156.28;;;7.22;100.00
55490;BME280;44029;52.956;4.772;2023-03-01T09:31:17;103156.63;;;7.35;100.00
55490;BME280;44029;52.956;4.772;2023-03-01T09:33:46;103164.78;;;7.51;100.00
55490;BME280;44029;52.956;4.772;2023-03-01T09:36:13;103162.06;;;7.43;100.00
55490;BME280;44029;52.956;4.772;2023-03-01T09:38:39;103164.97;;;7.33;100.00
55490;BME280;44029;52.956;4.772;2023-03-01T09:44:15;103164.97;;;7.50;100.00
55490;BME280;44029;52.956;4.772;2023-03-01T09:46:43;103157.66;;;7.42;100.00
55490;BME280;44029;52.956;4.772;2023-03-01T09:49:15;103161.25;;;7.18;100.00
55490;BME280;44029;52.956;4.772;2023-03-01T09:51:55;103159.31;;;6.94;100.00
55490;BME280;44029;52.956;4.772;2023-03-01T09:54:20;103154.41;;;6.89;100.00
55490;BME280;44029;52.956;4.772;2023-03-01T09:57:06;103149.47;;;7.26;100.00
55490;BME280;44029;52.956;4.772;2023-03-01T09:59:56;103154.91;;;7.42;100.00
55490;BME280;44029;52.956;4.772;2023-03-01T10:02:27;103153.19;;;7.41;100.00
55490;BME280;44029;52.956;4.772;2023-03-01T10:05:41;103153.88;;;7.10;100.00
55490;BME280;44029;52.956;4.772;2023-03-01T10:08:29;103141.97;;;7.20;100.00
55490;BME280;44029;52.956;4.772;2023-03-01T10:10:58;103143.84;;;6.94;100.00
55490;BME280;44029;52.956;4.772;2023-03-01T10:16:09;103151.28;;;6.68;100.00
55490;BME280;44029;52.956;4.772;2023-03-01T10:18:37;103149.44;;;6.68;100.00
55490;BME280;44029;52.956;4.772;2023-03-01T10:21:15;103147.03;;;6.65;100.00
55490;BME280;44029;52.956;4.772;2023-03-01T10:23:42;103148.19;;;6.54;100.00
55490;BME280;44029;52.956;4.772;2023-03-01T10:29:00;103133.59;;;6.88;100.00
55490;BME280;44029;52.956;4.772;2023-03-01T10:31:37;103129.19;;;6.63;100.00
55490;BME280;44029;52.956;4.772;2023-03-01T10:34:14;103134.47;;;6.72;100.00
55490;BME280;44029;52.956;4.772;2023-03-01T10:36:42;103134.81;;;6.86;100.00
55490;BME280;44029;52.956;4.772;2023-03-01T10:39:21;103128.00;;;6.90;100.00
55490;BME280;44029;52.956;4.772;2023-03-01T10:42:05;103124.41;;;6.73;100.00
55490;BME280;44029;52.956;4.772;2023-03-01T10:44:39;103122.84;;;6.62;100.00
55490;BME280;44029;52.956;4.772;2023-03-01T10:47:13;103121.16;;;6.61;100.00
55490;BME280;44029;52.956;4.772;2023-03-01T10:49:39;103119.41;;;6.44;100.00
55490;BME280;44029;52.956;4.772;2023-03-01T10:52:21;103122.53;;;6.73;100.00
55490;BME280;44029;52.956;4.772;2023-03-01T10:54:57;103122.03;;;6.78;100.00
55490;BME280;44029;52.956;4.772;2023-03-01T10:57:35;103119.81;;;6.73;100.00
55490;BME280;44029;52.956;4.772;2023-03-01T11:00:26;103125.94;;;6.67;100.00
55490;BME280;44029;52.956;4.772;2023-03-01T11:03:13;103114.00;;;6.52;100.00
55490;BME280;44029;52.956;4.772;2023-03-01T11:05:52;103124.06;;;6.76;100.00
55490;BME280;44029;52.956;4.772;2023-03-01T11:08:33;103111.59;;;6.49;100.00
55490;BME280;44029;52.956;4.772;2023-03-01T11:11:20;103119.41;;;6.44;100.00
55490;BME280;44029;52.956;4.772;2023-03-01T11:16:34;103109.41;;;6.52;100.00
55490;BME280;44029;52.956;4.772;2023-03-01T11:24:26;103107.09;;;6.23;100.00
55490;BME280;44029;52.956;4.772;2023-03-01T11:26:55;103097.56;;;6.19;100.00
55490;BME280;44029;52.956;4.772;2023-03-01T11:29:42;103115.31;;;6.39;100.00
55490;BME280;44029;52.956;4.772;2023-03-01T11:32:11;103102.19;;;6.18;100.00
55490;BME280;44029;52.956;4.772;2023-03-01T11:34:54;103103.03;;;6.27;100.00
55490;BME280;44029;52.956;4.772;2023-03-01T11:37:44;103100.47;;;6.17;100.00
55490;BME280;44029;52.956;4.772;2023-03-01T11:40:37;103099.78;;;6.15;100.00
55490;BME280;44029;52.956;4.772;2023-03-01T11:43:12;103106.44;;;6.21;100.00
55490;BME280;44029;52.956;4.772;2023-03-01T11:48:41;103101.50;;;6.16;100.00
55490;BME280;44029;52.956;4.772;2023-03-01T11:51:20;103095.53;;;6.13;100.00
55490;BME280;44029;52.956;4.772;2023-03-01T11:56:51;103089.94;;;6.23;100.00
55490;BME280;44029;52.956;4.772;2023-03-01T12:10:23;103068.19;;;6.47;100.00
55490;BME280;44029;52.956;4.772;2023-03-01T12:26:34;103046.75;;;6.36;100.00
55490;BME280;44029;52.956;4.772;2023-03-01T12:37:32;103044.16;;;6.18;100.00
55490;BME280;44029;52.956;4.772;2023-03-01T12:43:40;103028.84;;;6.25;100.00
55490;BME280;44029;52.956;4.772;2023-03-01T12:49:13;103016.94;;;6.18;100.00
55490;BME280;44029;52.956;4.772;2023-03-01T12:51:44;103019.38;;;6.29;100.00
55490;BME280;44029;52.956;4.772;2023-03-01T12:54:28;103017.47;;;6.38;100.00
55490;BME280;44029;52.956;4.772;2023-03-01T12:56:57;103006.56;;;6.22;100.00
55490;BME280;44029;52.956;4.772;2023-03-01T12:59:35;103011.97;;;6.05;100.00
55490;BME280;44029;52.956;4.772;2023-03-01T13:02:07;103010.47;;;6.11;100.00
55490;BME280;44029;52.956;4.772;2023-03-01T13:04:45;103007.25;;;6.07;100.00
55490;BME280;44029;52.956;4.772;2023-03-01T13:07:19;103003.53;;;6.16;100.00
55490;BME280;44029;52.956;4.772;2023-03-01T13:13:00;103007.94;;;6.17;100.00
55490;BME280;44029;52.956;4.772;2023-03-01T13:17:55;102999.22;;;5.97;100.00
55490;BME280;44029;52.956;4.772;2023-03-01T13:23:04;102992.13;;;6.29;100.00
55490;BME280;44029;52.956;4.772;2023-03-01T13:25:31;102988.84;;;6.01;100.00
55490;BME280;44029;52.956;4.772;2023-03-01T13:30:58;102980.38;;;6.21;100.00
55490;BME280;44029;52.956;4.772;2023-03-01T13:35:56;102967.09;;;6.17;100.00
55490;BME280;44029;52.956;4.772;2023-03-01T13:41:04;102951.28;;;6.21;100.00
55490;BME280;44029;52.956;4.772;2023-03-01T13:43:35;102940.75;;;6.10;100.00
55490;BME280;44029;52.956;4.772;2023-03-01T13:46:17;102940.09;;;6.41;100.00
55490;BME280;44029;52.956;4.772;2023-03-01T13:48:44;102944.16;;;6.28;100.00
55490;BME280;44029;52.956;4.772;2023-03-01T13:51:11;102945.50;;;6.16;100.00
55490;BME280;44029;52.956;4.772;2023-03-01T13:53:44;102949.25;;;6.23;100.00
55490;BME280;44029;52.956;4.772;2023-03-01T13:56:15;102944.16;;;6.20;100.00
55490;BME280;44029;52.956;4.772;2023-03-01T13:59:05;102944.31;;;6.43;100.00
55490;BME280;44029;52.956;4.772;2023-03-01T14:01:34;102939.41;;;6.38;100.00
55490;BME280;44029;52.956;4.772;2023-03-01T14:04:00;102938.00;;;6.18;100.00
55490;BME280;44029;52.956;4.772;2023-03-01T14:06:28;102938.88;;;6.43;100.00
55490;BME280;44029;52.956;4.772;2023-03-01T14:09:20;102935.13;;;6.52;100.00
55490;BME280;44029;52.956;4.772;2023-03-01T14:19:27;102933.75;;;6.24;100.00
55490;BME280;44029;52.956;4.772;2023-03-01T14:24:46;102924.75;;;6.48;100.00
55490;BME280;44029;52.956;4.772;2023-03-01T14:27:13;102926.63;;;6.31;100.00
55490;BME280;44029;52.956;4.772;2023-03-01T14:29:39;102928.66;;;6.29;100.00
55490;BME280;44029;52.956;4.772;2023-03-01T14:32:19;102933.78;;;6.32;100.00
55490;BME280;44029;52.956;4.772;2023-03-01T14:34:46;102941.44;;;6.28;100.00